Time;durP1;ratioP1;P1;durP2;ratioP2;P2;SDS_P1;SDS_P2;PMS_P1;PMS_P2;Temp;Humidity;BMP_temperature;BMP_pressure;BME280_temperature;BME280_humidity;BME280_pressure;Samples;Min_cycle;Max_cycle;Signal;HPM_P1;HPM_P2
2022/08/12 00:45:05;;;;;;;8.13;6.17;;;;;;;;;;5094241;28;20501;-71
2022/08/12 00:47:32;;;;;;;9.83;7.57;;;;;;;;;;5091411;28;20501;-71
2022/08/12 00:49:59;;;;;;;11.13;7.93;;;;;;;;;;5091669;28;20782;-71
2022/08/12 00:52:26;;;;;;;9.63;6.97;;;;;;;;;;5073402;28;20428;-71
2022/08/12 00:54:55;;;;;;;16.37;7.10;;;;;;;;;;5073449;28;20455;-71
2022/08/12 00:57:27;;;;;;;9.27;6.30;;;;;;;;;;5091818;28;20453;-71
2022/08/12 01:00:03;;;;;;;10.37;7.00;;;;;;;;;;5073357;28;20423;-71
2022/08/12 01:02:32;;;;;;;7.03;5.90;;;;;;;;;;5073265;28;20439;-71
2022/08/12 01:13:20;;;;;;;6.60;5.87;;;;;;;;;;5063717;28;20454;-72
2022/08/12 01:15:48;;;;;;;7.10;6.37;;;;;;;;;;5069785;28;20454;-72
2022/08/12 01:18:15;;;;;;;8.47;6.60;;;;;;;;;;5071044;28;20482;-72
2022/08/12 01:20:48;;;;;;;6.10;5.43;;;;;;;;;;5070953;28;20507;-72
2022/08/12 01:23:21;;;;;;;6.60;6.00;;;;;;;;;;5069556;28;20796;-72
2022/08/12 01:25:49;;;;;;;7.50;5.90;;;;;;;;;;5069496;28;20467;-72
2022/08/12 01:28:23;;;;;;;5.97;5.47;;;;;;;;;;5070966;28;20455;-72
2022/08/12 01:30:50;;;;;;;6.93;6.23;;;;;;;;;;5070990;28;20468;-72
2022/08/12 01:33:19;;;;;;;6.07;5.57;;;;;;;;;;5069555;28;20440;-72
2022/08/12 01:35:54;;;;;;;6.80;5.90;;;;;;;;;;5070777;28;20424;-72
2022/08/12 01:38:34;;;;;;;7.40;5.30;;;;;;;;;;5069736;28;20435;-72
2022/08/12 01:41:01;;;;;;;7.87;5.60;;;;;;;;;;5069375;28;20482;-72
2022/08/12 01:43:29;;;;;;;6.57;5.73;;;;;;;;;;5070813;28;20756;-72
2022/08/12 01:46:28;;;;;;;8.10;6.80;;;;;;;;;;5070751;28;20456;-72
2022/08/12 01:48:58;;;;;;;9.50;6.30;;;;;;;;;;5024366;28;20489;-72
2022/08/12 01:51:33;;;;;;;8.03;6.80;;;;;;;;;;5039706;28;20488;-72
2022/08/12 01:54:21;;;;;;;6.73;6.00;;;;;;;;;;5072131;28;20436;-71
2022/08/12 01:56:51;;;;;;;6.47;5.87;;;;;;;;;;5069392;28;20486;-71
2022/08/12 01:59:48;;;;;;;9.40;7.97;;;;;;;;;;5070595;28;20498;-71
2022/08/12 02:02:15;;;;;;;7.33;6.63;;;;;;;;;;5031352;28;20469;-71
2022/08/12 02:11:21;;;;;;;10.23;8.10;;;;;;;;;;5090880;28;20434;-71
2022/08/12 02:13:51;;;;;;;10.80;9.20;;;;;;;;;;5075413;28;20789;-72
2022/08/12 02:16:38;;;;;;;8.77;7.97;;;;;;;;;;5056523;28;20440;-72
2022/08/12 02:19:10;;;;;;;9.00;8.10;;;;;;;;;;5072891;28;20502;-71
2022/08/12 02:21:48;;;;;;;13.57;8.10;;;;;;;;;;5057673;28;20515;-71
2022/08/12 02:24:18;;;;;;;19.87;11.60;;;;;;;;;;5072781;28;20439;-71
2022/08/12 02:26:48;;;;;;;14.67;11.17;;;;;;;;;;5089365;28;20460;-71
2022/08/12 02:29:17;;;;;;;29.07;14.97;;;;;;;;;;5072432;28;20794;-71
2022/08/12 02:31:44;;;;;;;20.47;14.33;;;;;;;;;;5055816;28;20461;-71
2022/08/12 02:34:12;;;;;;;25.60;16.40;;;;;;;;;;5073784;28;20483;-71
2022/08/12 02:36:39;;;;;;;20.43;13.60;;;;;;;;;;5072425;28;20474;-71
2022/08/12 02:39:12;;;;;;;20.53;14.50;;;;;;;;;;5073685;28;20448;-71
2022/08/12 02:41:41;;;;;;;21.30;14.47;;;;;;;;;;5073597;28;20421;-71
2022/08/12 02:44:08;;;;;;;18.03;14.20;;;;;;;;;;5072176;28;20432;-71
2022/08/12 02:46:36;;;;;;;18.17;12.50;;;;;;;;;;5072073;28;20460;-71
2022/08/12 02:49:02;;;;;;;23.30;15.70;;;;;;;;;;5071972;28;20502;-71
2022/08/12 02:51:30;;;;;;;20.63;13.43;;;;;;;;;;5072012;28;20843;-71
2022/08/12 02:53:59;;;;;;;22.53;15.60;;;;;;;;;;5073394;28;20476;-71
2022/08/12 02:56:31;;;;;;;22.43;15.33;;;;;;;;;;5072187;28;20482;-71
2022/08/12 02:58:58;;;;;;;22.60;15.83;;;;;;;;;;5072060;28;20518;-71
2022/08/12 03:01:33;;;;;;;30.53;18.23;;;;;;;;;;5071960;28;20440;-71
2022/08/12 03:04:01;;;;;;;34.10;19.77;;;;;;;;;;5073371;28;20511;-71
2022/08/12 03:06:32;;;;;;;34.30;23.13;;;;;;;;;;5088565;28;20501;-71
2022/08/12 03:09:02;;;;;;;31.57;22.93;;;;;;;;;;5088450;28;20437;-71
2022/08/12 03:11:39;;;;;;;34.70;21.83;;;;;;;;;;5073023;28;20413;-71
2022/08/12 03:14:12;;;;;;;36.63;26.33;;;;;;;;;;5038519;28;20516;-71
2022/08/12 03:16:39;;;;;;;35.47;22.43;;;;;;;;;;5066803;28;20421;-71
2022/08/12 03:19:06;;;;;;;33.77;23.63;;;;;;;;;;5069494;28;20870;-71
2022/08/12 03:21:36;;;;;;;36.30;23.77;;;;;;;;;;5071351;28;20464;-71
2022/08/12 03:24:25;;;;;;;37.70;25.07;;;;;;;;;;5071765;28;20820;-71
2022/08/12 03:26:53;;;;;;;40.07;23.87;;;;;;;;;;5072720;28;20578;-71
2022/08/12 03:29:29;;;;;;;37.47;22.87;;;;;;;;;;5072717;28;20417;-71
2022/08/12 03:31:59;;;;;;;47.33;24.80;;;;;;;;;;5088130;28;20847;-71
2022/08/12 03:34:28;;;;;;;44.73;24.23;;;;;;;;;;5071579;28;20916;-71
2022/08/12 03:36:55;;;;;;;38.97;27.33;;;;;;;;;;5072372;28;21069;-71
2022/08/12 03:42:24;;;;;;;40.20;26.23;;;;;;;;;;5072419;28;20955;-72
2022/08/12 04:01:39;;;;;;;47.80;22.43;;;;;;;;;;5072151;28;20474;-72
2022/08/12 04:04:09;;;;;;;42.00;26.50;;;;;;;;;;5087639;28;20425;-71
2022/08/12 04:06:40;;;;;;;47.40;25.50;;;;;;;;;;5070470;28;20456;-71
2022/08/12 04:09:07;;;;;;;40.47;25.00;;;;;;;;;;5071837;28;20808;-71
2022/08/12 04:14:28;;;;;;;48.93;27.13;;;;;;;;;;5070423;28;20429;-72
2022/08/12 04:16:55;;;;;;;53.97;27.63;;;;;;;;;;5053664;28;20436;-72
2022/08/12 04:19:23;;;;;;;50.40;28.97;;;;;;;;;;5070665;28;20441;-72
2022/08/12 04:21:50;;;;;;;47.17;26.80;;;;;;;;;;5070170;28;20815;-72
2022/08/12 04:24:30;;;;;;;50.47;25.70;;;;;;;;;;5087280;28;20429;-72
2022/08/12 04:26:56;;;;;;;41.63;26.70;;;;;;;;;;5071098;28;20463;-72
2022/08/12 04:29:25;;;;;;;45.93;24.87;;;;;;;;;;5070190;28;20440;-72
2022/08/12 04:32:12;;;;;;;40.10;28.23;;;;;;;;;;5071514;28;20474;-72
2022/08/12 04:34:40;;;;;;;37.87;25.50;;;;;;;;;;5086871;28;20424;-72
2022/08/12 04:37:06;;;;;;;33.43;24.10;;;;;;;;;;5069931;28;20519;-72
2022/08/12 04:39:33;;;;;;;32.83;21.73;;;;;;;;;;5069962;28;20482;-72
2022/08/12 04:42:00;;;;;;;40.23;23.13;;;;;;;;;;5071507;28;20425;-72
2022/08/12 04:44:26;;;;;;;37.83;24.07;;;;;;;;;;5071259;28;20416;-72
2022/08/12 04:46:54;;;;;;;38.60;24.30;;;;;;;;;;5069849;28;20456;-72
2022/08/12 04:49:23;;;;;;;42.20;22.27;;;;;;;;;;5053454;28;20433;-72
2022/08/12 04:51:49;;;;;;;41.23;23.53;;;;;;;;;;5071334;28;20417;-72
2022/08/12 04:54:25;;;;;;;44.10;24.40;;;;;;;;;;5054513;28;20493;-72
2022/08/12 04:56:52;;;;;;;35.33;23.57;;;;;;;;;;5070063;28;20981;-71
2022/08/12 04:59:31;;;;;;;39.43;25.17;;;;;;;;;;5071382;28;20427;-71
2022/08/12 05:02:14;;;;;;;31.63;22.90;;;;;;;;;;5071181;28;20424;-72
2022/08/12 05:04:43;;;;;;;31.73;21.00;;;;;;;;;;5086463;28;20431;-71
2022/08/12 05:07:11;;;;;;;28.60;19.47;;;;;;;;;;5070859;28;20875;-71
2022/08/12 05:09:38;;;;;;;33.87;20.60;;;;;;;;;;5071222;28;20429;-71
2022/08/12 05:12:26;;;;;;;30.60;20.37;;;;;;;;;;5071024;28;20508;-71
2022/08/12 05:14:53;;;;;;;35.03;23.20;;;;;;;;;;5086427;28;20440;-72
2022/08/12 05:17:19;;;;;;;31.73;21.47;;;;;;;;;;5086334;28;20468;-72
2022/08/12 05:19:52;;;;;;;40.83;21.63;;;;;;;;;;5070956;28;20790;-71
2022/08/12 05:22:22;;;;;;;31.70;17.57;;;;;;;;;;5069840;28;20460;-71
2022/08/12 05:24:49;;;;;;;20.30;14.70;;;;;;;;;;5069596;28;20842;-71
2022/08/12 05:27:16;;;;;;;17.10;13.53;;;;;;;;;;5069321;28;21009;-72
2022/08/12 05:29:48;;;;;;;27.60;15.40;;;;;;;;;;5052935;28;20432;-71
2022/08/12 05:32:34;;;;;;;21.57;16.13;;;;;;;;;;5069658;28;20436;-71
2022/08/12 05:35:05;;;;;;;22.37;13.93;;;;;;;;;;5069425;28;20490;-71
2022/08/12 05:37:35;;;;;;;25.33;15.23;;;;;;;;;;5069293;28;20471;-71
2022/08/12 05:40:03;;;;;;;27.17;15.87;;;;;;;;;;5070041;28;20938;-71
2022/08/12 05:42:36;;;;;;;24.57;15.87;;;;;;;;;;5084521;28;20453;-71
2022/08/12 05:45:03;;;;;;;20.83;14.10;;;;;;;;;;5094867;28;20427;-71
2022/08/12 05:47:30;;;;;;;26.70;16.93;;;;;;;;;;5094577;28;20471;-71
2022/08/12 05:50:16;;;;;;;26.53;16.47;;;;;;;;;;5099166;28;20491;-71
2022/08/12 05:52:43;;;;;;;25.47;15.93;;;;;;;;;;5105905;28;20424;-71
2022/08/12 05:55:10;;;;;;;25.53;15.97;;;;;;;;;;5090154;28;20427;-71
2022/08/12 05:57:37;;;;;;;24.07;15.53;;;;;;;;;;5091543;28;20460;-71
2022/08/12 06:00:04;;;;;;;21.70;14.13;;;;;;;;;;5108439;28;20443;-71
2022/08/12 06:02:36;;;;;;;23.53;13.50;;;;;;;;;;5107397;28;20437;-71
2022/08/12 06:05:06;;;;;;;23.40;14.53;;;;;;;;;;5106616;28;20445;-71
2022/08/12 06:07:39;;;;;;;22.27;13.53;;;;;;;;;;5086177;28;20509;-71
2022/08/12 06:10:25;;;;;;;30.17;12.57;;;;;;;;;;5079192;28;20463;-72
2022/08/12 06:12:59;;;;;;;23.30;12.77;;;;;;;;;;5066876;28;20807;-72
2022/08/12 06:15:25;;;;;;;14.23;11.37;;;;;;;;;;5073042;28;20772;-72
2022/08/12 06:17:52;;;;;;;19.20;11.07;;;;;;;;;;5072363;28;20837;-72
2022/08/12 06:20:19;;;;;;;21.80;11.03;;;;;;;;;;5072962;28;20478;-72
2022/08/12 06:22:55;;;;;;;18.90;10.73;;;;;;;;;;5072832;28;21096;-72
2022/08/12 06:25:22;;;;;;;15.00;10.50;;;;;;;;;;5072676;28;20469;-72
2022/08/12 06:27:48;;;;;;;14.90;9.93;;;;;;;;;;5072330;28;20518;-72
2022/08/12 06:30:34;;;;;;;17.70;9.27;;;;;;;;;;5072323;28;20460;-72
2022/08/12 06:33:05;;;;;;;14.70;8.77;;;;;;;;;;5072258;28;20519;-72
2022/08/12 06:35:52;;;;;;;11.70;8.60;;;;;;;;;;5072588;28;20452;-72
2022/08/12 06:38:24;;;;;;;11.00;9.90;;;;;;;;;;5072177;28;20459;-72
2022/08/12 06:43:38;;;;;;;11.70;9.53;;;;;;;;;;5072140;28;20443;-72
2022/08/12 06:46:26;;;;;;;10.60;8.60;;;;;;;;;;5072087;28;20561;-71
2022/08/12 06:48:57;;;;;;;9.73;6.80;;;;;;;;;;5071972;28;20547;-71
2022/08/12 06:51:26;;;;;;;12.03;6.40;;;;;;;;;;5088866;28;20435;-71
2022/08/12 06:53:54;;;;;;;3.50;3.20;;;;;;;;;;5071931;28;20502;-71
2022/08/12 06:56:21;;;;;;;4.57;3.50;;;;;;;;;;5088763;28;20778;-71
2022/08/12 06:59:05;;;;;;;2.80;2.10;;;;;;;;;;5071901;28;20473;-71
2022/08/12 07:01:32;;;;;;;3.83;2.47;;;;;;;;;;5071877;28;20440;-71
2022/08/12 07:03:58;;;;;;;2.97;2.40;;;;;;;;;;5073023;28;20450;-71
2022/08/12 07:06:45;;;;;;;2.50;2.30;;;;;;;;;;5071822;28;20488;-71
2022/08/12 07:09:13;;;;;;;3.80;2.00;;;;;;;;;;5071889;28;20448;-71
2022/08/12 07:12:00;;;;;;;3.17;2.87;;;;;;;;;;5071611;28;20510;-71
2022/08/12 07:14:26;;;;;;;5.30;2.73;;;;;;;;;;5071681;28;20471;-71
2022/08/12 07:16:55;;;;;;;3.67;2.40;;;;;;;;;;5071317;28;20528;-71
2022/08/12 07:19:22;;;;;;;2.77;2.27;;;;;;;;;;5071701;28;20417;-71
2022/08/12 07:21:50;;;;;;;4.37;2.60;;;;;;;;;;5072707;28;20909;-71
2022/08/12 07:24:28;;;;;;;3.03;2.13;;;;;;;;;;5071561;28;20428;-71
2022/08/12 07:26:54;;;;;;;3.97;2.93;;;;;;;;;;5071127;28;20904;-71
2022/08/12 07:29:21;;;;;;;2.40;2.20;;;;;;;;;;5072500;28;20432;-71
2022/08/12 07:31:48;;;;;;;3.03;2.50;;;;;;;;;;5072469;28;20428;-71
2022/08/12 07:34:15;;;;;;;4.90;2.43;;;;;;;;;;5071140;28;20506;-72
2022/08/12 07:36:42;;;;;;;2.93;2.70;;;;;;;;;;5071330;28;20462;-72
2022/08/12 07:39:09;;;;;;;2.40;2.20;;;;;;;;;;5070971;28;20464;-72
2022/08/12 07:41:36;;;;;;;3.93;2.70;;;;;;;;;;5054532;28;20428;-72
2022/08/12 07:44:04;;;;;;;4.97;2.90;;;;;;;;;;5054639;28;20974;-72
2022/08/12 07:46:35;;;;;;;4.30;2.20;;;;;;;;;;5070918;28;20517;-72
2022/08/12 07:49:06;;;;;;;3.43;2.40;;;;;;;;;;5072176;28;20440;-72
2022/08/12 07:51:32;;;;;;;6.03;2.70;;;;;;;;;;5071085;28;20486;-72
2022/08/12 07:54:00;;;;;;;6.47;2.47;;;;;;;;;;5087549;28;20439;-72
2022/08/12 07:56:29;;;;;;;2.83;2.33;;;;;;;;;;5070809;28;20464;-72
2022/08/12 07:58:57;;;;;;;4.80;2.30;;;;;;;;;;5070501;28;20986;-72
2022/08/12 08:01:24;;;;;;;2.33;1.97;;;;;;;;;;5070440;28;20433;-72
2022/08/12 08:06:43;;;;;;;2.30;1.70;;;;;;;;;;5070475;28;20456;-72
2022/08/12 08:09:12;;;;;;;5.30;2.00;;;;;;;;;;5069346;28;20457;-72
2022/08/12 08:14:28;;;;;;;5.30;2.30;;;;;;;;;;5071758;28;20466;-72
2022/08/12 08:16:55;;;;;;;8.63;1.90;;;;;;;;;;5086860;28;20416;-72
2022/08/12 08:19:22;;;;;;;2.13;2.03;;;;;;;;;;5070904;28;20460;-72
2022/08/12 08:21:49;;;;;;;4.83;2.00;;;;;;;;;;5072923;28;20425;-72
2022/08/12 08:24:17;;;;;;;3.23;2.07;;;;;;;;;;5073657;28;20774;-72
2022/08/12 08:26:50;;;;;;;2.37;2.20;;;;;;;;;;5090105;28;20457;-72
2022/08/12 08:29:17;;;;;;;2.30;2.10;;;;;;;;;;5073289;28;20456;-72
2022/08/12 08:31:45;;;;;;;2.27;2.17;;;;;;;;;;5075378;28;20781;-72
2022/08/12 08:34:12;;;;;;;2.10;2.00;;;;;;;;;;5070413;28;20436;-72
2022/08/12 08:36:58;;;;;;;2.00;1.80;;;;;;;;;;5071473;28;20499;-72
2022/08/12 08:39:30;;;;;;;4.60;2.07;;;;;;;;;;5086631;28;20785;-72
2022/08/12 08:44:46;;;;;;;1.83;1.73;;;;;;;;;;5070108;28;20425;-72
2022/08/12 08:47:20;;;;;;;15.07;2.40;;;;;;;;;;5071220;28;20469;-72
2022/08/12 08:49:47;;;;;;;2.57;1.97;;;;;;;;;;5086797;28;20464;-72
2022/08/12 08:52:13;;;;;;;5.13;1.80;;;;;;;;;;5070058;28;20429;-72
2022/08/12 08:55:00;;;;;;;3.03;2.20;;;;;;;;;;5071210;28;20420;-72
2022/08/12 08:57:26;;;;;;;2.83;1.63;;;;;;;;;;5069867;28;21030;-72
2022/08/12 09:00:14;;;;;;;1.87;1.77;;;;;;;;;;5071299;28;20826;-72
2022/08/12 09:02:41;;;;;;;2.43;1.73;;;;;;;;;;5069959;28;20444;-72
2022/08/12 09:05:16;;;;;;;3.90;2.07;;;;;;;;;;5070314;28;20478;-73
2022/08/12 09:07:51;;;;;;;2.23;1.53;;;;;;;;;;5085980;28;20475;-72
2022/08/12 09:10:37;;;;;;;1.27;1.17;;;;;;;;;;5073209;28;20425;-72
2022/08/12 09:13:33;;;;;;;1.40;1.30;;;;;;;;;;5071211;28;20436;-72
2022/08/12 09:16:19;;;;;;;2.40;1.43;;;;;;;;;;5074277;28;21187;-72
2022/08/12 09:18:48;;;;;;;3.67;1.63;;;;;;;;;;5074114;28;20551;-73
2022/08/12 09:21:18;;;;;;;4.93;1.50;;;;;;;;;;5074326;28;20519;-72
2022/08/12 09:23:49;;;;;;;1.83;1.43;;;;;;;;;;5091249;28;20490;-72
2022/08/12 09:26:27;;;;;;;5.80;1.67;;;;;;;;;;5075091;28;20798;-73
2022/08/12 09:28:55;;;;;;;3.17;1.60;;;;;;;;;;5074343;28;20448;-73
2022/08/12 09:31:22;;;;;;;4.77;1.80;;;;;;;;;;5074385;28;20933;-73
2022/08/12 09:34:11;;;;;;;1.67;1.30;;;;;;;;;;5075647;28;20431;-73
2022/08/12 09:36:53;;;;;;;2.50;1.37;;;;;;;;;;5074730;28;20432;-73
2022/08/12 09:39:30;;;;;;;1.43;1.33;;;;;;;;;;5075154;28;20423;-73
2022/08/12 09:45:22;;;;;;;2.23;1.77;;;;;;;;;;5075671;28;20984;-74
2022/08/12 09:48:08;;;;;;;4.50;1.70;;;;;;;;;;5080541;28;20475;-73
2022/08/12 09:50:48;;;;;;;1.67;1.30;;;;;;;;;;5096196;28;20434;-73
2022/08/12 09:53:19;;;;;;;2.50;1.80;;;;;;;;;;5095201;28;20419;-73
2022/08/12 09:56:11;;;;;;;2.30;2.10;;;;;;;;;;5075893;28;20530;-73
2022/08/12 09:58:57;;;;;;;1.80;1.70;;;;;;;;;;5091993;28;20538;-73
2022/08/12 10:01:30;;;;;;;3.00;2.23;;;;;;;;;;5083862;28;20522;-74
2022/08/12 10:04:22;;;;;;;1.93;1.83;;;;;;;;;;5094176;28;20869;-72
2022/08/12 10:06:49;;;;;;;2.00;1.90;;;;;;;;;;5093596;28;20503;-72
2022/08/12 10:09:23;;;;;;;1.37;1.27;;;;;;;;;;5094570;28;20810;-72
2022/08/12 10:14:59;;;;;;;2.70;2.07;;;;;;;;;;5072504;28;20845;-72
2022/08/12 10:17:26;;;;;;;1.43;1.33;;;;;;;;;;5072339;28;21007;-72
2022/08/12 10:19:52;;;;;;;1.70;1.60;;;;;;;;;;5102646;28;20424;-72
2022/08/12 10:22:19;;;;;;;3.80;1.63;;;;;;;;;;5072442;28;20460;-72
2022/08/12 10:30:57;;;;;;;3.47;1.77;;;;;;;;;;5073700;28;20479;-72
2022/08/12 10:33:29;;;;;;;1.97;1.80;;;;;;;;;;5072148;28;20486;-72
2022/08/12 10:35:58;;;;;;;3.20;1.70;;;;;;;;;;5072319;28;20523;-72
2022/08/12 10:38:25;;;;;;;3.17;1.90;;;;;;;;;;5089011;28;20828;-72
2022/08/12 10:44:12;;;;;;;1.60;1.50;;;;;;;;;;5073425;28;20519;-72
2022/08/12 10:46:46;;;;;;;2.43;1.80;;;;;;;;;;5056227;28;20490;-72
2022/08/12 10:49:15;;;;;;;1.83;1.73;;;;;;;;;;5089293;28;20489;-72
2022/08/12 10:52:03;;;;;;;5.70;2.20;;;;;;;;;;5089741;28;20460;-72
2022/08/12 10:54:50;;;;;;;2.63;1.63;;;;;;;;;;5060289;28;20432;-72
2022/08/12 10:57:17;;;;;;;1.67;1.57;;;;;;;;;;5074102;28;20540;-72
2022/08/12 11:00:05;;;;;;;3.73;2.30;;;;;;;;;;5073781;28;20426;-72
2022/08/12 11:02:53;;;;;;;1.97;1.80;;;;;;;;;;5075245;28;20855;-72
2022/08/12 11:05:39;;;;;;;1.93;1.83;;;;;;;;;;5072900;28;20872;-72
2022/08/12 11:08:26;;;;;;;2.37;2.20;;;;;;;;;;5071309;28;20475;-72
2022/08/12 11:11:07;;;;;;;1.90;1.80;;;;;;;;;;5086861;28;20416;-72
2022/08/12 11:13:40;;;;;;;2.80;1.60;;;;;;;;;;5072661;28;20427;-72
2022/08/12 11:16:17;;;;;;;1.70;1.60;;;;;;;;;;5071497;28;20428;-72
2022/08/12 11:18:48;;;;;;;3.53;1.73;;;;;;;;;;5072983;28;20510;-72
2022/08/12 11:21:21;;;;;;;4.30;1.73;;;;;;;;;;5071335;28;20445;-72
2022/08/12 11:24:07;;;;;;;2.17;1.97;;;;;;;;;;5072717;28;20427;-72
2022/08/12 11:26:54;;;;;;;2.20;1.80;;;;;;;;;;5087963;28;20990;-72
2022/08/12 11:29:27;;;;;;;1.50;1.40;;;;;;;;;;5072767;28;20433;-72
2022/08/12 11:32:13;;;;;;;1.80;1.70;;;;;;;;;;5072641;28;20448;-72
2022/08/12 11:34:40;;;;;;;1.73;1.60;;;;;;;;;;5088329;28;20966;-72
2022/08/12 11:37:20;;;;;;;2.33;1.83;;;;;;;;;;5071722;28;20476;-72
2022/08/12 11:39:53;;;;;;;2.23;2.07;;;;;;;;;;5071025;28;20436;-72
2022/08/12 11:42:35;;;;;;;2.00;1.80;;;;;;;;;;5072751;28;20420;-72
2022/08/12 11:45:11;;;;;;;1.80;1.70;;;;;;;;;;5071360;28;20432;-72
2022/08/12 11:47:42;;;;;;;1.70;1.60;;;;;;;;;;5071828;28;20539;-72
2022/08/12 11:50:08;;;;;;;4.63;1.67;;;;;;;;;;5073278;28;20464;-71
2022/08/12 11:52:45;;;;;;;2.30;2.10;;;;;;;;;;5072031;28;20448;-73
2022/08/12 11:55:23;;;;;;;2.70;2.10;;;;;;;;;;5073088;28;20432;-72
2022/08/12 11:57:53;;;;;;;1.60;1.40;;;;;;;;;;5087430;28;20505;-72
2022/08/12 12:00:40;;;;;;;2.20;2.10;;;;;;;;;;5089631;28;20423;-73
2022/08/12 12:03:27;;;;;;;3.47;2.00;;;;;;;;;;5092683;28;20431;-73
2022/08/12 12:06:12;;;;;;;1.63;1.53;;;;;;;;;;5097379;28;20431;-72
2022/08/12 12:08:43;;;;;;;1.80;1.67;;;;;;;;;;5101641;28;20554;-74
2022/08/12 12:11:16;;;;;;;1.73;1.63;;;;;;;;;;5080281;28;20428;-73
2022/08/12 12:13:43;;;;;;;1.30;1.20;;;;;;;;;;5083016;28;20432;-73
2022/08/12 12:16:30;;;;;;;1.90;1.80;;;;;;;;;;5082934;28;20550;-73
2022/08/12 12:19:07;;;;;;;2.10;1.70;;;;;;;;;;5070899;28;20460;-73
2022/08/12 12:21:36;;;;;;;2.60;1.60;;;;;;;;;;5093567;28;20510;-73
2022/08/12 12:24:14;;;;;;;3.87;1.40;;;;;;;;;;5097379;28;20449;-73
2022/08/12 12:26:52;;;;;;;1.60;1.50;;;;;;;;;;5093919;28;20485;-73
2022/08/12 12:29:26;;;;;;;1.70;1.60;;;;;;;;;;5092094;28;20420;-73
2022/08/12 12:32:13;;;;;;;2.50;1.60;;;;;;;;;;5091772;28;20514;-73
2022/08/12 12:34:39;;;;;;;1.50;1.40;;;;;;;;;;5092877;28;20411;-73
2022/08/12 12:37:26;;;;;;;1.83;1.70;;;;;;;;;;5091701;28;20443;-73
2022/08/12 12:40:13;;;;;;;2.67;1.57;;;;;;;;;;5094331;28;20465;-73
2022/08/12 12:42:39;;;;;;;3.50;1.50;;;;;;;;;;5093809;28;20435;-73
2022/08/12 12:45:20;;;;;;;1.70;1.60;;;;;;;;;;5094514;28;20484;-73
2022/08/12 12:47:54;;;;;;;2.07;1.87;;;;;;;;;;5077803;28;20498;-73
2022/08/12 12:50:22;;;;;;;3.50;1.67;;;;;;;;;;5094216;28;20474;-73
2022/08/12 12:53:02;;;;;;;2.27;1.50;;;;;;;;;;5091352;28;20442;-73
2022/08/12 12:55:28;;;;;;;1.57;1.47;;;;;;;;;;5073244;28;20466;-73
2022/08/12 12:58:03;;;;;;;1.53;1.43;;;;;;;;;;5089843;28;20450;-73
2022/08/12 13:00:31;;;;;;;1.73;1.63;;;;;;;;;;5091686;28;21005;-73
2022/08/12 13:02:58;;;;;;;2.17;1.97;;;;;;;;;;5075299;28;20428;-74
2022/08/12 13:05:30;;;;;;;2.50;1.80;;;;;;;;;;5089807;28;20435;-73
2022/08/12 13:08:37;;;;;;;2.77;1.60;;;;;;;;;;5089905;28;20499;-73
2022/08/12 13:11:04;;;;;;;1.87;1.60;;;;;;;;;;5065543;28;20464;-73
2022/08/12 13:13:32;;;;;;;1.73;1.60;;;;;;;;;;5065195;28;20452;-73
2022/08/12 13:16:25;;;;;;;1.60;1.50;;;;;;;;;;5086501;28;20460;-73
2022/08/12 13:18:52;;;;;;;4.57;1.60;;;;;;;;;;5080638;28;20548;-73
2022/08/12 13:21:19;;;;;;;2.17;1.70;;;;;;;;;;5062324;28;20463;-73
2022/08/12 13:24:02;;;;;;;2.10;1.97;;;;;;;;;;5057647;28;20424;-73
2022/08/12 13:26:38;;;;;;;1.73;1.63;;;;;;;;;;5069463;28;20446;-73
2022/08/12 13:29:05;;;;;;;4.40;1.80;;;;;;;;;;5069247;28;20559;-73
2022/08/12 13:31:37;;;;;;;4.70;2.27;;;;;;;;;;5069541;28;20424;-73
2022/08/12 13:34:23;;;;;;;1.60;1.50;;;;;;;;;;5052141;28;20544;-73
2022/08/12 13:37:03;;;;;;;2.13;1.63;;;;;;;;;;5069391;28;20880;-73
2022/08/12 13:39:34;;;;;;;2.20;1.70;;;;;;;;;;5085459;28;20472;-73
2022/08/12 13:42:01;;;;;;;1.70;1.60;;;;;;;;;;5072881;28;20830;-73
2022/08/12 13:44:27;;;;;;;1.73;1.63;;;;;;;;;;5089384;28;20496;-73
2022/08/12 13:46:54;;;;;;;2.03;1.93;;;;;;;;;;5072726;28;20505;-73
2022/08/12 13:49:25;;;;;;;1.40;1.30;;;;;;;;;;5073882;28;20956;-73
2022/08/12 13:52:12;;;;;;;3.43;1.80;;;;;;;;;;5086285;28;21035;-73
2022/08/12 13:54:39;;;;;;;1.37;1.27;;;;;;;;;;5069200;28;20448;-73
2022/08/12 13:57:05;;;;;;;1.40;1.30;;;;;;;;;;5052796;28;20443;-73
2022/08/12 13:59:42;;;;;;;1.80;1.70;;;;;;;;;;5067564;28;20471;-73
2022/08/12 14:02:20;;;;;;;1.77;1.67;;;;;;;;;;5085220;28;20469;-73
2022/08/12 14:04:48;;;;;;;1.63;1.53;;;;;;;;;;5083510;28;20843;-74
2022/08/12 14:07:22;;;;;;;2.03;1.77;;;;;;;;;;5074021;28;20445;-74
2022/08/12 14:12:43;;;;;;;3.03;1.90;;;;;;;;;;5071965;28;20550;-73
2022/08/12 14:15:21;;;;;;;3.33;2.00;;;;;;;;;;5075731;28;20486;-73
2022/08/12 14:18:10;;;;;;;5.10;1.63;;;;;;;;;;5077052;28;20452;-73
2022/08/12 14:20:42;;;;;;;2.20;2.00;;;;;;;;;;5062871;28;21307;-73
2022/08/12 14:23:14;;;;;;;1.50;1.40;;;;;;;;;;5089550;28;20523;-73
2022/08/12 14:26:02;;;;;;;1.83;1.73;;;;;;;;;;5078089;28;20514;-73
2022/08/12 14:28:31;;;;;;;2.00;1.90;;;;;;;;;;5070667;28;20468;-74
2022/08/12 14:31:01;;;;;;;1.60;1.50;;;;;;;;;;5060282;28;20437;-73
2022/08/12 14:33:32;;;;;;;2.20;2.00;;;;;;;;;;5073058;28;20466;-73
2022/08/12 14:36:10;;;;;;;1.70;1.60;;;;;;;;;;5072830;28;20436;-74
2022/08/12 14:38:42;;;;;;;4.03;1.90;;;;;;;;;;5089123;28;20502;-74
2022/08/12 14:41:11;;;;;;;5.17;2.00;;;;;;;;;;5056020;28;20643;-74
2022/08/12 14:43:40;;;;;;;1.90;1.80;;;;;;;;;;5072034;28;20981;-74
2022/08/12 14:46:26;;;;;;;4.00;1.60;;;;;;;;;;5077796;28;20523;-74
2022/08/12 14:48:53;;;;;;;3.43;2.13;;;;;;;;;;5075649;28;20475;-74
2022/08/12 14:51:25;;;;;;;2.80;1.53;;;;;;;;;;5092118;28;20996;-74
2022/08/12 14:54:13;;;;;;;1.80;1.70;;;;;;;;;;5076963;28;20417;-74
2022/08/12 14:57:05;;;;;;;2.47;1.50;;;;;;;;;;5072043;28;20898;-73
2022/08/12 15:02:37;;;;;;;2.80;1.50;;;;;;;;;;5071013;28;20517;-74
2022/08/12 15:05:05;;;;;;;4.53;2.00;;;;;;;;;;5067790;28;20428;-74
2022/08/12 15:07:33;;;;;;;2.60;1.63;;;;;;;;;;5073310;28;20474;-74
2022/08/12 15:10:17;;;;;;;1.70;1.60;;;;;;;;;;5087703;28;20416;-74
2022/08/12 15:12:58;;;;;;;1.67;1.57;;;;;;;;;;5064678;28;20478;-74
2022/08/12 15:15:24;;;;;;;2.53;2.00;;;;;;;;;;5071548;28;20433;-74
2022/08/12 15:17:57;;;;;;;2.00;1.80;;;;;;;;;;5072910;28;20468;-74
2022/08/12 15:20:24;;;;;;;2.70;1.90;;;;;;;;;;5060385;28;20471;-74
2022/08/12 15:23:06;;;;;;;2.00;1.80;;;;;;;;;;5091833;28;20428;-74
2022/08/12 15:25:47;;;;;;;1.73;1.63;;;;;;;;;;5091752;28;20484;-74
2022/08/12 15:28:21;;;;;;;2.40;2.30;;;;;;;;;;5075355;28;20925;-74
2022/08/12 15:30:52;;;;;;;2.17;1.77;;;;;;;;;;5091578;28;20986;-74
2022/08/12 15:33:20;;;;;;;4.53;2.10;;;;;;;;;;5092667;28;20934;-74
2022/08/12 15:35:49;;;;;;;2.03;1.83;;;;;;;;;;5093844;28;20432;-74
2022/08/12 15:38:20;;;;;;;2.17;1.97;;;;;;;;;;5114843;28;20443;-74
2022/08/12 15:40:53;;;;;;;2.00;1.90;;;;;;;;;;5114650;28;20527;-74
2022/08/12 15:43:21;;;;;;;2.43;1.80;;;;;;;;;;5106303;28;20435;-73
2022/08/12 15:46:08;;;;;;;4.23;1.97;;;;;;;;;;5091499;28;20488;-73
2022/08/12 15:48:42;;;;;;;2.63;1.80;;;;;;;;;;5075432;28;20891;-73
2022/08/12 15:51:26;;;;;;;1.93;1.83;;;;;;;;;;5074982;28;20438;-74
2022/08/12 15:54:12;;;;;;;1.77;1.63;;;;;;;;;;5089803;28;20444;-74
2022/08/12 15:56:59;;;;;;;3.63;1.80;;;;;;;;;;5070752;28;20527;-74
2022/08/12 15:59:28;;;;;;;1.90;1.80;;;;;;;;;;5070769;28;20805;-74
2022/08/12 16:02:17;;;;;;;4.50;1.80;;;;;;;;;;5060043;28;20888;-74
2022/08/12 16:04:50;;;;;;;1.87;1.50;;;;;;;;;;5072008;28;20456;-74
2022/08/12 16:07:20;;;;;;;3.97;1.80;;;;;;;;;;5073836;28;20470;-73
2022/08/12 16:09:55;;;;;;;3.03;2.10;;;;;;;;;;5090744;28;20807;-74
2022/08/12 16:12:38;;;;;;;1.60;1.50;;;;;;;;;;5058268;28;20928;-74
2022/08/12 16:15:05;;;;;;;1.70;1.60;;;;;;;;;;5080765;28;20453;-73
2022/08/12 16:17:33;;;;;;;1.90;1.80;;;;;;;;;;5070930;28;20478;-73
2022/08/12 16:20:21;;;;;;;1.97;1.87;;;;;;;;;;5072336;28;20431;-74
2022/08/12 16:22:59;;;;;;;5.63;1.97;;;;;;;;;;5070428;28;20429;-74
2022/08/12 16:25:32;;;;;;;2.07;1.90;;;;;;;;;;5070458;28;20440;-74
2022/08/12 16:28:21;;;;;;;1.77;1.67;;;;;;;;;;5060168;28;20826;-74
2022/08/12 16:30:53;;;;;;;2.40;1.53;;;;;;;;;;5058344;28;20479;-74
2022/08/12 16:33:20;;;;;;;5.13;2.17;;;;;;;;;;5063634;28;20441;-74
2022/08/12 16:35:48;;;;;;;5.83;1.80;;;;;;;;;;5062040;28;20854;-74
2022/08/12 16:38:22;;;;;;;1.80;1.70;;;;;;;;;;5063576;28;20449;-74
2022/08/12 16:40:54;;;;;;;7.37;1.57;;;;;;;;;;5065025;28;20517;-74
2022/08/12 16:43:26;;;;;;;1.87;1.57;;;;;;;;;;5090131;28;20440;-73
2022/08/12 16:45:55;;;;;;;1.63;1.53;;;;;;;;;;5089566;28;20420;-74
2022/08/12 16:48:43;;;;;;;3.13;1.40;;;;;;;;;;5058072;28;20839;-74
2022/08/12 16:51:11;;;;;;;1.60;1.50;;;;;;;;;;5088245;28;20422;-73
2022/08/12 16:53:39;;;;;;;1.50;1.40;;;;;;;;;;5090149;28;20435;-73
2022/08/12 16:56:11;;;;;;;1.67;1.53;;;;;;;;;;5083732;28;20482;-73
2022/08/12 16:58:38;;;;;;;1.80;1.53;;;;;;;;;;5065146;28;21015;-73
2022/08/12 17:01:10;;;;;;;2.03;1.50;;;;;;;;;;5074141;28;20922;-73
2022/08/12 17:03:43;;;;;;;1.97;1.70;;;;;;;;;;5102406;28;20416;-73
2022/08/12 17:06:18;;;;;;;3.30;2.10;;;;;;;;;;5087861;28;20435;-73